Time;durP1;ratioP1;P1;durP2;ratioP2;P2;SDS_P1;SDS_P2;PMS_P1;PMS_P2;Temp;Humidity;BMP_temperature;BMP_pressure;BME280_temperature;BME280_humidity;BME280_pressure;Samples;Min_cycle;Max_cycle;Signal;HPM_P1;HPM_P2
2024/03/16 00:01:23;;;;;;;;;;;;;;;12.24;62.43;97732.59;5085313;28;20019;-84
2024/03/16 00:03:52;;;;;;;;;;;;;;;12.22;62.72;97734.88;5072947;28;19925;-85
2024/03/16 00:06:20;;;;;;;;;;;;;;;12.33;63.00;97736.91;5043494;28;20035;-82
2024/03/16 00:08:48;;;;;;;;;;;;;;;12.34;64.09;97737.69;5082616;28;19931;-83
2024/03/16 00:11:15;;;;;;;;;;;;;;;12.34;64.39;97740.41;5075951;28;20338;-82
2024/03/16 00:13:43;;;;;;;;;;;;;;;12.37;64.91;97742.50;5071655;28;19928;-83
2024/03/16 00:16:11;;;;;;;;;;;;;;;12.35;65.40;97750.19;5054525;28;19963;-83
2024/03/16 00:18:39;;;;;;;;;;;;;;;12.34;65.98;97743.16;5062743;28;20397;-84
2024/03/16 00:21:07;;;;;;;;;;;;;;;12.37;66.60;97741.72;5076927;28;19931;-83
2024/03/16 00:23:35;;;;;;;;;;;;;;;12.33;67.00;97747.78;5057846;28;20019;-83
2024/03/16 00:26:03;;;;;;;;;;;;;;;12.36;67.66;97740.91;5080137;28;19925;-82
2024/03/16 00:28:33;;;;;;;;;;;;;;;12.33;67.78;97744.28;5064833;28;20044;-82
2024/03/16 00:31:03;;;;;;;;;;;;;;;12.29;68.43;97741.41;5072297;28;19934;-83
2024/03/16 00:33:33;;;;;;;;;;;;;;;12.22;69.23;97738.38;5071523;28;19927;-82
2024/03/16 00:36:01;;;;;;;;;;;;;;;12.18;69.72;97734.72;5063087;28;19978;-82
2024/03/16 00:38:30;;;;;;;;;;;;;;;12.17;69.86;97727.66;5069047;28;19997;-83
2024/03/16 00:40:58;;;;;;;;;;;;;;;12.06;70.49;97724.50;5071333;28;20233;-83
2024/03/16 00:43:26;;;;;;;;;;;;;;;12.02;70.76;97722.75;5058534;28;19939;-83
2024/03/16 00:45:54;;;;;;;;;;;;;;;12.05;70.96;97714.75;5076133;28;19924;-82
2024/03/16 00:48:24;;;;;;;;;;;;;;;11.86;71.41;97711.59;5075485;28;20299;-83
2024/03/16 00:50:52;;;;;;;;;;;;;;;11.90;71.10;97707.09;5044991;28;19974;-82
2024/03/16 00:53:24;;;;;;;;;;;;;;;11.91;71.18;97705.16;5049617;28;19924;-83
2024/03/16 00:55:52;;;;;;;;;;;;;;;11.87;71.33;97707.72;5057365;28;20545;-82
2024/03/16 00:58:20;;;;;;;;;;;;;;;11.72;71.87;97727.28;5077143;28;19933;-82
2024/03/16 01:00:48;;;;;;;;;;;;;;;11.73;72.20;97731.59;5057943;28;19928;-83
2024/03/16 01:03:15;;;;;;;;;;;;;;;11.77;71.76;97733.38;5063642;28;19932;-82
2024/03/16 01:05:43;;;;;;;;;;;;;;;11.75;72.05;97740.25;5066405;28;19992;-82
2024/03/16 01:08:11;;;;;;;;;;;;;;;11.68;72.16;97737.22;5049136;28;19925;-82
2024/03/16 01:10:39;;;;;;;;;;;;;;;11.74;71.62;97738.66;5045071;28;19978;-82
2024/03/16 01:13:07;;;;;;;;;;;;;;;11.78;71.40;97739.59;5061226;28;19925;-83
2024/03/16 01:15:35;;;;;;;;;;;;;;;11.70;71.38;97740.41;5047625;28;19925;-82
2024/03/16 01:18:03;;;;;;;;;;;;;;;11.67;71.57;97741.06;5061891;28;19924;-82
2024/03/16 01:20:31;;;;;;;;;;;;;;;11.48;71.80;97744.13;5069245;28;19998;-83
2024/03/16 01:23:06;;;;;;;;;;;;;;;11.48;71.05;97744.91;5085439;28;19924;-83
2024/03/16 01:25:34;;;;;;;;;;;;;;;11.41;71.18;97739.16;5068676;28;19924;-83
2024/03/16 01:28:02;;;;;;;;;;;;;;;11.45;70.67;97739.31;5062677;28;20295;-84
2024/03/16 01:30:30;;;;;;;;;;;;;;;11.46;70.28;97747.16;5055905;28;19923;-84
2024/03/16 01:32:58;;;;;;;;;;;;;;;11.39;69.98;97749.53;5065496;28;19931;-84
2024/03/16 01:35:26;;;;;;;;;;;;;;;11.43;69.86;97747.78;5060080;28;19936;-84
2024/03/16 01:37:55;;;;;;;;;;;;;;;11.39;69.85;97749.53;5073764;28;19931;-84
2024/03/16 01:40:25;;;;;;;;;;;;;;;11.43;69.49;97747.78;5082368;28;20026;-84
2024/03/16 01:42:53;;;;;;;;;;;;;;;11.34;69.55;97748.91;5057346;28;19928;-84
2024/03/16 01:45:47;;;;;;;;;;;;;;;11.42;69.53;97751.63;5065105;28;19925;-82
2024/03/16 01:48:15;;;;;;;;;;;;;;;11.43;69.22;97752.44;5085743;28;19935;-84
2024/03/16 01:50:44;;;;;;;;;;;;;;;11.42;69.61;97757.06;5048779;28;19978;-85
2024/03/16 01:53:12;;;;;;;;;;;;;;;11.37;70.82;97757.22;5071992;28;19927;-85
2024/03/16 01:55:40;;;;;;;;;;;;;;;11.41;71.71;97751.97;5064611;28;19932;-84
2024/03/16 01:58:07;;;;;;;;;;;;;;;11.44;72.26;97737.72;5071828;28;19983;-84
2024/03/16 02:00:36;;;;;;;;;;;;;;;11.45;71.93;97739.31;5084329;28;19952;-83
2024/03/16 02:03:04;;;;;;;;;;;;;;;11.36;72.52;97742.03;5064704;28;19931;-83
2024/03/16 02:05:32;;;;;;;;;;;;;;;11.18;72.67;97745.84;5060453;28;19982;-84
2024/03/16 02:08:01;;;;;;;;;;;;;;;11.08;72.81;97746.16;5078190;28;20260;-83
2024/03/16 02:10:29;;;;;;;;;;;;;;;10.99;73.74;97752.41;5070868;28;19928;-83
2024/03/16 02:12:57;;;;;;;;;;;;;;;10.96;73.46;97749.50;5066402;28;19927;-84
2024/03/16 02:15:25;;;;;;;;;;;;;;;11.01;73.37;97742.00;5069226;28;19946;-83
2024/03/16 02:17:53;;;;;;;;;;;;;;;10.99;73.13;97749.69;5071622;28;19924;-83
2024/03/16 02:20:22;;;;;;;;;;;;;;;10.99;73.23;97746.97;5062933;28;19955;-81
2024/03/16 02:22:50;;;;;;;;;;;;;;;11.00;73.27;97751.28;5059954;28;19924;-83
2024/03/16 02:25:18;;;;;;;;;;;;;;;10.99;73.09;97746.97;5056477;28;19972;-86
2024/03/16 02:27:47;;;;;;;;;;;;;;;11.06;72.72;97762.00;5048343;28;20137;-86
2024/03/16 02:30:15;;;;;;;;;;;;;;;10.96;73.03;97760.38;5069806;28;20291;-86
2024/03/16 02:32:43;;;;;;;;;;;;;;;11.01;72.89;97762.97;5068546;28;20707;-86
2024/03/16 02:35:12;;;;;;;;;;;;;;;10.97;72.65;97770.13;5048384;28;19932;-85
2024/03/16 02:37:40;;;;;;;;;;;;;;;10.99;72.47;97768.72;5063741;28;19939;-86
2024/03/16 02:40:11;;;;;;;;;;;;;;;11.02;72.66;97770.00;5063731;28;19938;-86
2024/03/16 02:42:39;;;;;;;;;;;;;;;10.98;72.58;97763.59;5079063;28;19924;-85
2024/03/16 02:45:07;;;;;;;;;;;;;;;11.04;72.54;97767.78;5068408;28;19928;-86
2024/03/16 02:47:35;;;;;;;;;;;;;;;10.87;72.44;97754.94;5050726;28;19932;-86
2024/03/16 02:50:03;;;;;;;;;;;;;;;10.95;72.56;97764.22;5072418;28;19923;-86
2024/03/16 02:52:32;;;;;;;;;;;;;;;10.98;72.58;97769.84;5063801;28;19963;-86
2024/03/16 02:55:00;;;;;;;;;;;;;;;10.90;72.84;97767.09;5065256;28;19964;-86
2024/03/16 02:57:28;;;;;;;;;;;;;;;10.99;72.42;97771.44;5080825;28;19952;-86
2024/03/16 02:59:56;;;;;;;;;;;;;;;11.00;72.68;97773.03;5077752;28;20026;-86
2024/03/16 03:02:24;;;;;;;;;;;;;;;11.02;72.19;97775.44;5053540;28;19928;-85
2024/03/16 03:04:52;;;;;;;;;;;;;;;11.08;71.78;97778.78;5064435;28;19927;-86
2024/03/16 03:07:20;;;;;;;;;;;;;;;11.04;72.45;97784.09;5060062;28;19998;-86
2024/03/16 03:09:48;;;;;;;;;;;;;;;11.08;72.43;97779.63;5063098;28;20414;-86
2024/03/16 03:12:16;;;;;;;;;;;;;;;11.10;72.08;97777.38;5065099;28;19924;-86
2024/03/16 03:14:44;;;;;;;;;;;;;;;11.12;72.22;97780.56;5068629;28;19928;-85
2024/03/16 03:17:13;;;;;;;;;;;;;;;11.15;72.16;97773.69;5068276;28;19931;-85
2024/03/16 03:19:42;;;;;;;;;;;;;;;11.01;72.39;97768.41;5057758;28;19924;-85
2024/03/16 03:22:12;;;;;;;;;;;;;;;11.08;72.03;97762.47;5063628;28;20018;-86
2024/03/16 03:24:40;;;;;;;;;;;;;;;11.05;71.90;97763.13;5088251;28;19930;-84
2024/03/16 03:27:08;;;;;;;;;;;;;;;11.00;72.00;97766.78;5069441;28;19963;-85
2024/03/16 03:29:36;;;;;;;;;;;;;;;10.99;71.96;97771.44;5078398;28;19932;-85
2024/03/16 03:32:04;;;;;;;;;;;;;;;10.90;72.29;97767.91;5068796;28;20023;-86
2024/03/16 03:34:32;;;;;;;;;;;;;;;10.97;71.88;97772.84;5082708;28;19924;-85
2024/03/16 03:37:01;;;;;;;;;;;;;;;10.93;72.06;97761.84;5058259;28;19928;-85
2024/03/16 03:39:29;;;;;;;;;;;;;;;10.83;72.14;97762.13;5071624;28;19943;-85
2024/03/16 03:41:56;;;;;;;;;;;;;;;10.87;72.13;97760.38;5054517;28;19924;-86
2024/03/16 03:44:35;;;;;;;;;;;;;;;10.89;72.19;97757.34;5060508;28;19972;-85
2024/03/16 03:47:03;;;;;;;;;;;;;;;10.89;72.37;97760.06;5052535;28;20058;-85
2024/03/16 03:49:35;;;;;;;;;;;;;;;10.92;72.14;97760.25;5077015;28;19955;-85
2024/03/16 03:52:03;;;;;;;;;;;;;;;10.96;72.15;97765.81;5078220;28;20278;-85
2024/03/16 03:54:33;;;;;;;;;;;;;;;10.90;72.34;97765.19;5057043;28;19924;-86
2024/03/16 03:57:03;;;;;;;;;;;;;;;10.96;72.08;97773.97;5065340;28;19924;-85
2024/03/16 03:59:31;;;;;;;;;;;;;;;10.95;72.41;97778.63;5068356;28;19929;-85
2024/03/16 04:01:59;;;;;;;;;;;;;;;10.73;72.87;97776.00;5053746;28;19951;-85
2024/03/16 04:04:27;;;;;;;;;;;;;;;10.71;73.10;97775.53;5071840;28;19974;-85
2024/03/16 04:06:55;;;;;;;;;;;;;;;10.68;73.51;97774.22;5077235;28;19924;-85
2024/03/16 04:09:23;;;;;;;;;;;;;;;10.67;73.70;97774.56;5073183;28;19985;-85
2024/03/16 04:11:51;;;;;;;;;;;;;;;10.74;73.49;97774.88;5070810;28;19923;-85
2024/03/16 04:14:20;;;;;;;;;;;;;;;10.75;73.12;97781.91;5078508;28;19972;-85
2024/03/16 04:16:48;;;;;;;;;;;;;;;10.75;73.09;97771.84;5050866;28;20528;-86
2024/03/16 04:19:22;;;;;;;;;;;;;;;10.80;72.95;97768.19;5060887;28;19928;-85
2024/03/16 04:21:51;;;;;;;;;;;;;;;10.81;72.56;97767.06;5071579;28;19977;-85
2024/03/16 04:24:19;;;;;;;;;;;;;;;10.81;72.62;97764.34;5050538;28;19924;-87
2024/03/16 04:26:47;;;;;;;;;;;;;;;10.87;72.37;97768.53;5075081;28;19931;-86
2024/03/16 04:29:15;;;;;;;;;;;;;;;10.79;72.24;97772.03;5067892;28;19929;-86
2024/03/16 04:31:45;;;;;;;;;;;;;;;10.77;72.61;97774.28;5063087;28;20019;-86
2024/03/16 04:34:15;;;;;;;;;;;;;;;10.77;72.43;97774.28;5045268;28;20026;-86
2024/03/16 04:36:43;;;;;;;;;;;;;;;10.81;72.28;97775.22;5078257;28;19939;-86
2024/03/16 04:39:11;;;;;;;;;;;;;;;10.77;72.18;97768.84;5061579;28;19924;-86
2024/03/16 04:41:39;;;;;;;;;;;;;;;10.73;72.59;97768.66;5061930;28;19938;-86
2024/03/16 04:44:10;;;;;;;;;;;;;;;10.73;72.55;97778.72;5057591;28;20058;-85
2024/03/16 04:46:38;;;;;;;;;;;;;;;10.73;72.62;97776.00;5091155;28;19935;-81
2024/03/16 04:49:07;;;;;;;;;;;;;;;10.75;72.61;97790.06;5075729;28;19954;-81
2024/03/16 04:51:34;;;;;;;;;;;;;;;10.76;72.61;97783.53;5072744;28;19924;-81
2024/03/16 04:54:02;;;;;;;;;;;;;;;10.72;72.40;97783.38;5075934;28;19930;-81
2024/03/16 04:56:30;;;;;;;;;;;;;;;10.70;72.52;97784.78;5069853;28;20292;-81
2024/03/16 04:58:58;;;;;;;;;;;;;;;10.73;72.60;97790.41;5086736;28;19986;-81
2024/03/16 05:01:25;;;;;;;;;;;;;;;10.69;73.12;97775.03;5046349;28;19928;-81
2024/03/16 05:04:19;;;;;;;;;;;;;;;10.71;73.00;97784.47;5042199;28;19924;-81
2024/03/16 05:06:47;;;;;;;;;;;;;;;10.60;73.81;97785.88;5077478;28;20011;-81
2024/03/16 05:09:15;;;;;;;;;;;;;;;10.66;74.56;97795.50;5077800;28;20545;-81
2024/03/16 05:11:44;;;;;;;;;;;;;;;10.72;74.75;97804.31;5070302;28;20027;-79
2024/03/16 05:14:12;;;;;;;;;;;;;;;10.68;74.76;97795.16;5085423;28;20069;-78
2024/03/16 05:17:04;;;;;;;;;;;;;;;10.59;75.68;97803.28;5080636;28;19924;-79
2024/03/16 05:19:31;;;;;;;;;;;;;;;10.69;75.41;97800.28;5061840;28;19924;-81
2024/03/16 05:21:59;;;;;;;;;;;;;;;10.61;76.01;97798.34;5055679;28;19932;-81
2024/03/16 05:24:30;;;;;;;;;;;;;;;10.62;76.42;97804.59;5056669;28;19928;-81
2024/03/16 05:26:57;;;;;;;;;;;;;;;10.57;77.15;97810.16;5074756;28;19939;-80
2024/03/16 05:29:25;;;;;;;;;;;;;;;10.51;77.52;97809.50;5065741;28;20283;-80
2024/03/16 05:31:56;;;;;;;;;;;;;;;10.48;77.33;97810.91;5071813;28;19938;-80
2024/03/16 05:34:24;;;;;;;;;;;;;;;10.46;77.82;97809.63;5070483;28;19932;-80
2024/03/16 05:36:51;;;;;;;;;;;;;;;10.51;77.81;97809.50;5050473;28;19927;-82
2024/03/16 05:39:20;;;;;;;;;;;;;;;10.53;77.59;97806.44;5049933;28;19935;-80
2024/03/16 05:41:48;;;;;;;;;;;;;;;10.57;77.67;97808.22;5078929;28;19924;-79
2024/03/16 05:44:17;;;;;;;;;;;;;;;10.54;77.77;97806.13;5047175;28;20027;-79
2024/03/16 05:46:44;;;;;;;;;;;;;;;10.52;77.52;97813.00;5072397;28;19934;-81
2024/03/16 05:49:12;;;;;;;;;;;;;;;10.51;77.84;97814.13;5042200;28;19982;-79
2024/03/16 05:51:44;;;;;;;;;;;;;;;10.56;77.48;97816.72;5059579;28;19970;-81
2024/03/16 05:54:19;;;;;;;;;;;;;;;10.60;77.45;97825.81;5043013;28;19924;-79
2024/03/16 05:56:49;;;;;;;;;;;;;;;10.55;77.34;97820.53;5060881;28;20650;-79
2024/03/16 05:59:24;;;;;;;;;;;;;;;10.58;77.35;97830.75;5059890;28;19932;-80
2024/03/16 06:01:52;;;;;;;;;;;;;;;10.58;77.40;97828.06;5061330;28;19931;-79
2024/03/16 06:04:20;;;;;;;;;;;;;;;10.61;77.53;97836.38;5060043;28;20302;-78
2024/03/16 06:06:48;;;;;;;;;;;;;;;10.57;77.49;97831.88;5047306;28;19929;-80
2024/03/16 06:09:16;;;;;;;;;;;;;;;10.60;77.23;97832.06;5052325;28;19928;-81
2024/03/16 06:11:44;;;;;;;;;;;;;;;10.63;76.87;97841.50;5064557;28;19932;-79
2024/03/16 06:14:11;;;;;;;;;;;;;;;10.59;76.82;97841.31;5053648;28;19928;-80
2024/03/16 06:16:40;;;;;;;;;;;;;;;10.70;76.31;97844.56;5064956;28;20648;-81
2024/03/16 06:19:07;;;;;;;;;;;;;;;10.63;76.72;97850.44;5067644;28;20015;-81
2024/03/16 06:21:35;;;;;;;;;;;;;;;10.63;76.77;97849.66;5060235;28;19928;-81
2024/03/16 06:24:04;;;;;;;;;;;;;;;10.65;76.78;97858.28;5063497;28;20032;-80
2024/03/16 06:26:34;;;;;;;;;;;;;;;10.63;76.23;97864.03;5072737;28;20001;-81
2024/03/16 06:29:06;;;;;;;;;;;;;;;10.66;76.37;97865.34;5054757;28;19928;-87
2024/03/16 06:31:36;;;;;;;;;;;;;;;10.66;75.97;97871.56;5052288;28;19924;-87
2024/03/16 06:34:05;;;;;;;;;;;;;;;10.67;75.96;97877.81;5065171;28;19973;-86
2024/03/16 06:36:33;;;;;;;;;;;;;;;10.66;76.25;97882.44;5063792;28;20031;-80
2024/03/16 06:39:05;;;;;;;;;;;;;;;10.62;76.35;97876.00;5049907;28;19978;-77
2024/03/16 06:41:34;;;;;;;;;;;;;;;10.61;76.30;97885.28;5044491;28;19925;-80
2024/03/16 06:44:02;;;;;;;;;;;;;;;10.68;76.10;97896.50;5059067;28;19935;-80
2024/03/16 06:46:31;;;;;;;;;;;;;;;10.73;76.02;97888.22;5052741;28;19925;-80
2024/03/16 06:49:05;;;;;;;;;;;;;;;10.74;76.36;97903.41;5060895;28;19931;-81
2024/03/16 06:51:34;;;;;;;;;;;;;;;10.74;76.12;97899.88;5054451;28;19924;-80
2024/03/16 06:54:05;;;;;;;;;;;;;;;10.80;76.26;97904.06;5052087;28;19926;-79
2024/03/16 06:56:32;;;;;;;;;;;;;;;10.82;75.90;97910.00;5066514;28;20459;-79
2024/03/16 06:59:00;;;;;;;;;;;;;;;10.87;75.68;97904.44;5078867;28;19968;-79
2024/03/16 07:01:28;;;;;;;;;;;;;;;10.76;75.69;97913.97;5061406;28;19929;-81
2024/03/16 07:03:56;;;;;;;;;;;;;;;10.83;75.82;97914.31;5061946;28;19964;-81
2024/03/16 07:06:24;;;;;;;;;;;;;;;10.81;76.10;97913.00;5037182;28;19955;-80
2024/03/16 07:08:52;;;;;;;;;;;;;;;10.83;76.16;97918.97;5070675;28;19931;-81
2024/03/16 07:11:20;;;;;;;;;;;;;;;10.87;75.74;97919.94;5071796;28;19928;-78
2024/03/16 07:13:47;;;;;;;;;;;;;;;10.85;75.30;97928.38;5070187;28;19928;-84
2024/03/16 07:16:16;;;;;;;;;;;;;;;10.76;75.95;97933.00;5052995;28;19925;-86
2024/03/16 07:18:44;;;;;;;;;;;;;;;10.84;75.76;97931.44;5048491;28;19928;-77
2024/03/16 07:21:14;;;;;;;;;;;;;;;10.90;75.88;97932.88;5057105;28;19950;-82
2024/03/16 07:23:42;;;;;;;;;;;;;;;10.95;75.58;97936.28;5053815;28;19978;-81
2024/03/16 07:26:10;;;;;;;;;;;;;;;11.05;74.97;97937.13;5059354;28;19928;-84
2024/03/16 07:28:38;;;;;;;;;;;;;;;11.01;74.73;97932.28;5057999;28;19946;-79
2024/03/16 07:31:06;;;;;;;;;;;;;;;10.97;74.87;97928.63;5067599;28;19924;-76
2024/03/16 07:33:34;;;;;;;;;;;;;;;11.11;74.57;97927.69;5063414;28;19928;-78
2024/03/16 07:36:04;;;;;;;;;;;;;;;11.04;74.56;97930.09;5052029;28;19925;-78
2024/03/16 07:38:32;;;;;;;;;;;;;;;11.14;74.78;97929.81;5062588;28;19928;-78
2024/03/16 07:41:03;;;;;;;;;;;;;;;11.17;74.23;97938.13;5072492;28;19956;-81
2024/03/16 07:43:31;;;;;;;;;;;;;;;11.27;74.22;97934.31;5080000;28;19932;-77
2024/03/16 07:45:59;;;;;;;;;;;;;;;11.34;73.74;97945.53;5059957;28;19977;-79
2024/03/16 07:48:27;;;;;;;;;;;;;;;11.39;73.61;97945.38;5059687;28;20515;-79
2024/03/16 07:51:03;;;;;;;;;;;;;;;11.40;73.68;97957.91;5055372;28;19947;-77
2024/03/16 07:53:32;;;;;;;;;;;;;;;11.43;73.33;97953.72;5068700;28;20018;-75
2024/03/16 07:55:59;;;;;;;;;;;;;;;11.33;72.14;97965.69;5037762;28;19969;-76
2024/03/16 07:58:27;;;;;;;;;;;;;;;11.34;72.30;97959.13;5062617;28;19923;-75
2024/03/16 08:00:55;;;;;;;;;;;;;;;11.43;72.95;97957.25;5067466;28;19958;-75
2024/03/16 08:03:23;;;;;;;;;;;;;;;11.44;72.18;97961.56;5058518;28;20607;-75
2024/03/16 08:05:51;;;;;;;;;;;;;;;11.46;72.31;97969.44;5071214;28;20295;-75
2024/03/16 08:08:19;;;;;;;;;;;;;;;11.47;72.10;97960.94;5067896;28;20327;-76
2024/03/16 08:10:46;;;;;;;;;;;;;;;11.49;72.01;97966.06;5054082;28;20376;-75
2024/03/16 08:13:14;;;;;;;;;;;;;;;11.50;71.82;97963.06;5053738;28;19924;-75
2024/03/16 08:15:43;;;;;;;;;;;;;;;11.48;71.21;97970.72;5067473;28;20299;-82
2024/03/16 08:18:11;;;;;;;;;;;;;;;11.43;71.46;97976.28;5051774;28;19928;-82
2024/03/16 08:20:39;;;;;;;;;;;;;;;11.52;71.15;97974.41;5042964;28;19973;-82
2024/03/16 08:23:07;;;;;;;;;;;;;;;11.54;70.90;97979.53;5058281;28;19932;-82
2024/03/16 08:25:35;;;;;;;;;;;;;;;11.62;71.17;97977.97;5058369;28;20403;-81
2024/03/16 08:28:03;;;;;;;;;;;;;;;11.64;70.86;97987.41;5056551;28;20314;-81
2024/03/16 08:30:34;;;;;;;;;;;;;;;11.68;70.56;97982.94;5057169;28;19931;-82
2024/03/16 08:33:02;;;;;;;;;;;;;;;11.72;70.42;97975.75;5060014;28;19928;-82
2024/03/16 08:35:32;;;;;;;;;;;;;;;11.68;70.49;97990.31;5039774;28;19968;-82
2024/03/16 08:38:05;;;;;;;;;;;;;;;11.57;70.58;97992.50;5065723;28;19978;-82
2024/03/16 08:40:33;;;;;;;;;;;;;;;11.51;70.41;97991.06;5075226;28;19928;-82
2024/03/16 08:43:01;;;;;;;;;;;;;;;11.58;71.01;97987.88;5060705;28;19929;-84
2024/03/16 08:45:30;;;;;;;;;;;;;;;11.50;70.14;97995.69;5065247;28;19928;-88
2024/03/16 08:47:58;;;;;;;;;;;;;;;11.45;71.05;97993.13;5066108;28;19924;-84
2024/03/16 08:50:27;;;;;;;;;;;;;;;11.55;71.28;97997.44;5055578;28;19928;-83
2024/03/16 08:52:55;;;;;;;;;;;;;;;11.54;70.85;98002.09;5077259;28;19928;-84
2024/03/16 08:55:24;;;;;;;;;;;;;;;11.37;71.01;98004.75;5058428;28;19935;-84
2024/03/16 08:57:51;;;;;;;;;;;;;;;11.39;71.97;98005.22;5074649;28;19924;-84
2024/03/16 09:00:19;;;;;;;;;;;;;;;11.23;72.51;98004.84;5061034;28;19929;-83
2024/03/16 09:02:48;;;;;;;;;;;;;;;11.25;73.15;98005.34;5054007;28;20354;-84
2024/03/16 09:05:16;;;;;;;;;;;;;;;11.22;73.51;98003.25;5053264;28;19925;-84
2024/03/16 09:07:43;;;;;;;;;;;;;;;11.18;72.79;98001.47;5065105;28;19923;-83
2024/03/16 09:10:11;;;;;;;;;;;;;;;11.21;73.22;98001.66;5075815;28;19959;-83
2024/03/16 09:12:39;;;;;;;;;;;;;;;11.27;73.57;97999.59;5077386;28;19931;-82
2024/03/16 09:15:08;;;;;;;;;;;;;;;11.27;73.25;98003.09;5060286;28;19977;-83
2024/03/16 09:17:36;;;;;;;;;;;;;;;11.32;73.39;98007.63;5066608;28;19955;-82
2024/03/16 09:20:07;;;;;;;;;;;;;;;11.32;73.36;98014.97;5048591;28;19951;-83
2024/03/16 09:25:53;;;;;;;;;;;;;;;11.28;73.27;98017.50;5075572;28;19932;-86
2024/03/16 09:28:21;;;;;;;;;;;;;;;11.35;73.11;98022.53;5084646;28;19971;-87
2024/03/16 09:30:49;;;;;;;;;;;;;;;11.28;72.86;98033.81;5078210;28;19924;-87
2024/03/16 09:33:18;;;;;;;;;;;;;;;11.17;72.87;98027.84;5050881;28;19931;-87
2024/03/16 09:35:47;;;;;;;;;;;;;;;11.22;73.03;98026.91;5069799;28;20237;-87
2024/03/16 09:38:15;;;;;;;;;;;;;;;11.26;72.75;98031.44;5073752;28;19925;-87
2024/03/16 09:40:44;;;;;;;;;;;;;;;11.25;72.37;98029.03;5068344;28;19935;-85
2024/03/16 09:43:12;;;;;;;;;;;;;;;11.26;73.00;98036.88;5070629;28;19924;-86
2024/03/16 09:45:39;;;;;;;;;;;;;;;11.26;72.91;98033.34;5025453;28;19929;-87
2024/03/16 09:48:06;;;;;;;;;;;;;;;11.22;73.06;98043.25;5053802;28;19928;-86
2024/03/16 09:50:33;;;;;;;;;;;;;;;11.32;73.10;98040.25;5033189;28;19928;-84
2024/03/16 09:53:00;;;;;;;;;;;;;;;11.42;73.14;98041.91;5069113;28;19932;-77
2024/03/16 09:55:27;;;;;;;;;;;;;;;11.44;72.94;98048.63;5060708;28;19928;-78
2024/03/16 09:57:55;;;;;;;;;;;;;;;11.51;72.36;98032.66;5043757;28;20296;-81
2024/03/16 10:00:22;;;;;;;;;;;;;;;11.61;72.34;98033.47;5072765;28;19924;-78
2024/03/16 10:02:49;;;;;;;;;;;;;;;11.68;72.00;98036.56;5042296;28;19925;-79
2024/03/16 10:05:17;;;;;;;;;;;;;;;11.83;71.99;98035.38;5055448;28;19974;-79
2024/03/16 10:07:44;;;;;;;;;;;;;;;11.87;70.83;98034.41;5052453;28;19948;-81
2024/03/16 10:10:13;;;;;;;;;;;;;;;11.92;71.02;98031.53;5045443;28;20322;-81
2024/03/16 10:12:41;;;;;;;;;;;;;;;12.00;70.40;98035.41;5072419;28;19931;-87
2024/03/16 10:15:16;;;;;;;;;;;;;;;12.04;70.29;98031.72;5036194;28;19955;-80
2024/03/16 10:17:43;;;;;;;;;;;;;;;12.02;69.24;98030.44;5039506;28;20439;-79
2024/03/16 10:20:15;;;;;;;;;;;;;;;11.95;69.21;98036.34;5036142;28;19931;-81
2024/03/16 10:22:44;;;;;;;;;;;;;;;11.96;69.28;98034.44;5046818;28;20376;-80
2024/03/16 10:25:11;;;;;;;;;;;;;;;12.04;69.48;98039.91;5046638;28;19935;-79
2024/03/16 10:27:38;;;;;;;;;;;;;;;12.08;69.71;98045.50;5056877;28;19924;-79
2024/03/16 10:30:11;;;;;;;;;;;;;;;12.03;70.13;98049.16;5057707;28;19925;-85
2024/03/16 10:32:38;;;;;;;;;;;;;;;12.04;71.22;98042.63;5038283;28;19935;-83
2024/03/16 10:35:07;;;;;;;;;;;;;;;12.06;71.59;98048.53;5054044;28;19924;-82
2024/03/16 10:37:35;;;;;;;;;;;;;;;12.11;72.45;98053.03;5042285;28;19934;-78
2024/03/16 10:40:13;;;;;;;;;;;;;;;12.15;72.25;98047.78;5052398;28;19924;-79
2024/03/16 10:42:42;;;;;;;;;;;;;;;12.12;73.03;98051.91;5039452;28;19931;-78
2024/03/16 10:45:09;;;;;;;;;;;;;;;12.18;72.94;98066.97;5054913;28;19924;-78
2024/03/16 10:47:36;;;;;;;;;;;;;;;12.22;72.49;98067.16;5048842;28;19931;-78
2024/03/16 10:50:09;;;;;;;;;;;;;;;12.28;71.72;98058.50;5068010;28;20341;-77
2024/03/16 10:52:37;;;;;;;;;;;;;;;12.23;71.47;98055.94;5056649;28;19967;-78
2024/03/16 10:55:07;;;;;;;;;;;;;;;12.19;71.76;98052.25;5054499;28;20599;-78
2024/03/16 10:57:36;;;;;;;;;;;;;;;12.39;72.17;98061.72;5054231;28;19924;-78
2024/03/16 11:00:12;;;;;;;;;;;;;;;12.54;72.71;98052.28;5035024;28;20315;-77
2024/03/16 11:02:49;;;;;;;;;;;;;;;12.76;71.23;98054.03;5045812;28;19951;-75
2024/03/16 11:05:35;;;;;;;;;;;;;;;13.00;70.68;98056.28;5042917;28;20662;-76
2024/03/16 11:08:11;;;;;;;;;;;;;;;13.09;70.09;98049.66;5060363;28;20288;-78
2024/03/16 11:10:39;;;;;;;;;;;;;;;13.10;68.12;98039.53;5047465;28;19924;-77
2024/03/16 11:13:16;;;;;;;;;;;;;;;13.29;69.08;98044.66;5040985;28;19994;-76
2024/03/16 11:15:45;;;;;;;;;;;;;;;13.28;68.18;98035.69;5058569;28;19927;-76
2024/03/16 11:18:30;;;;;;;;;;;;;;;13.37;68.07;98043.88;5058252;28;19930;-77
2024/03/16 11:20:57;;;;;;;;;;;;;;;13.33;67.88;98040.97;5073625;28;19936;-77
2024/03/16 11:23:27;;;;;;;;;;;;;;;13.28;66.81;98037.63;5036823;28;20396;-76
2024/03/16 11:25:54;;;;;;;;;;;;;;;13.26;67.17;98039.84;5059984;28;20311;-77
2024/03/16 11:28:21;;;;;;;;;;;;;;;13.34;67.62;98041.78;5042151;28;19924;-77
2024/03/16 11:30:47;;;;;;;;;;;;;;;13.15;65.86;98038.56;5036101;28;19932;-76
2024/03/16 11:33:13;;;;;;;;;;;;;;;13.04;66.59;98038.13;5054054;28;19928;-77
2024/03/16 11:35:40;;;;;;;;;;;;;;;13.09;67.04;98043.41;5055208;28;19990;-78
2024/03/16 11:38:07;;;;;;;;;;;;;;;13.01;67.40;98038.78;5083082;28;19923;-77
2024/03/16 11:40:33;;;;;;;;;;;;;;;12.93;67.86;98051.28;5061292;28;19950;-77
2024/03/16 11:43:00;;;;;;;;;;;;;;;12.91;67.77;98045.38;5073139;28;20384;-77
2024/03/16 11:45:25;;;;;;;;;;;;;;;12.98;67.98;98045.66;5074650;28;20085;-78
2024/03/16 11:47:53;;;;;;;;;;;;;;;13.01;67.48;98038.78;5066009;28;19932;-79
2024/03/16 11:50:19;;;;;;;;;;;;;;;13.02;67.03;98035.72;5068499;28;20001;-78
2024/03/16 11:52:46;;;;;;;;;;;;;;;13.04;66.60;98036.19;5053649;28;20626;-78
2024/03/16 11:55:13;;;;;;;;;;;;;;;13.16;66.26;98029.28;5056806;28;19928;-78
2024/03/16 11:57:40;;;;;;;;;;;;;;;13.32;65.44;98027.66;5055420;28;19924;-78
2024/03/16 12:00:12;;;;;;;;;;;;;;;13.45;64.46;98032.09;5057416;28;19931;-78
2024/03/16 12:02:39;;;;;;;;;;;;;;;13.41;63.58;98031.16;5057329;28;19927;-78
2024/03/16 12:05:05;;;;;;;;;;;;;;;13.40;63.44;98029.53;5055741;28;19924;-78
2024/03/16 12:07:32;;;;;;;;;;;;;;;13.39;63.51;98019.75;5054016;28;20034;-78
2024/03/16 12:09:59;;;;;;;;;;;;;;;13.41;62.89;98025.69;5057478;28;19928;-78
2024/03/16 12:12:25;;;;;;;;;;;;;;;13.40;61.87;98026.81;5052724;28;20378;-78
2024/03/16 12:15:06;;;;;;;;;;;;;;;13.46;60.67;98028.22;5021140;28;19925;-78
2024/03/16 12:17:33;;;;;;;;;;;;;;;13.43;61.29;98034.38;5062737;28;19928;-79
2024/03/16 12:19:59;;;;;;;;;;;;;;;13.55;61.28;98030.94;5055782;28;20379;-78
2024/03/16 12:22:26;;;;;;;;;;;;;;;13.62;61.39;98028.50;5055815;28;19957;-78
2024/03/16 12:24:53;;;;;;;;;;;;;;;13.68;60.65;98023.66;5039737;28;19924;-78
2024/03/16 12:27:22;;;;;;;;;;;;;;;13.86;60.58;98020.50;5049599;28;20264;-78
2024/03/16 12:29:49;;;;;;;;;;;;;;;13.93;59.57;98033.63;5068582;28;19932;-78
2024/03/16 12:32:14;;;;;;;;;;;;;;;13.93;59.24;98027.38;5046583;28;20277;-79
2024/03/16 12:34:42;;;;;;;;;;;;;;;14.05;59.56;98025.53;5053460;28;19985;-79
2024/03/16 12:37:07;;;;;;;;;;;;;;;14.19;59.50;98029.94;5054826;28;19928;-78
2024/03/16 12:39:34;;;;;;;;;;;;;;;14.07;57.75;98030.69;5059440;28;19924;-77
2024/03/16 12:42:00;;;;;;;;;;;;;;;13.99;57.36;98032.31;5059263;28;19931;-78
2024/03/16 12:44:28;;;;;;;;;;;;;;;13.89;57.94;98025.28;5057418;28;19924;-79
2024/03/16 12:46:57;;;;;;;;;;;;;;;13.81;57.68;98028.88;5047698;28;19931;-78
2024/03/16 12:49:24;;;;;;;;;;;;;;;13.81;57.39;98033.56;5053011;28;19946;-78
2024/03/16 12:51:50;;;;;;;;;;;;;;;13.73;58.14;98028.91;5036748;28;19939;-79
2024/03/16 12:54:17;;;;;;;;;;;;;;;13.67;58.29;98035.69;5022914;28;20356;-78
2024/03/16 12:56:47;;;;;;;;;;;;;;;13.65;58.20;98025.13;5071226;28;19924;-79
2024/03/16 12:59:14;;;;;;;;;;;;;;;13.61;59.28;98026.91;5073499;28;19924;-79